sensor_id;sensor_type;location;lat;lon;timestamp;P1;durP1;ratioP1;P2;durP2;ratioP2
19554;SDS011;9924;50.828;6.440;2023-06-14T00:02:02;14.95;;;7.32;;
19554;SDS011;9924;50.828;6.440;2023-06-14T00:04:46;8.32;;;6.45;;
19554;SDS011;9924;50.828;6.440;2023-06-14T00:07:35;8.00;;;6.63;;
19554;SDS011;9924;50.828;6.440;2023-06-14T00:10:22;10.13;;;7.07;;
19554;SDS011;9924;50.828;6.440;2023-06-14T00:13:06;13.13;;;7.25;;
19554;SDS011;9924;50.828;6.440;2023-06-14T00:15:54;9.75;;;7.50;;
19554;SDS011;9924;50.828;6.440;2023-06-14T00:18:38;10.10;;;6.93;;
19554;SDS011;9924;50.828;6.440;2023-06-14T00:21:23;8.95;;;7.07;;
19554;SDS011;9924;50.828;6.440;2023-06-14T00:24:07;10.13;;;6.85;;
19554;SDS011;9924;50.828;6.440;2023-06-14T00:26:51;10.30;;;7.22;;
19554;SDS011;9924;50.828;6.440;2023-06-14T00:29:36;8.50;;;6.78;;
19554;SDS011;9924;50.828;6.440;2023-06-14T00:32:20;7.70;;;6.88;;
19554;SDS011;9924;50.828;6.440;2023-06-14T00:35:09;7.55;;;6.45;;
19554;SDS011;9924;50.828;6.440;2023-06-14T00:37:53;10.98;;;7.25;;
19554;SDS011;9924;50.828;6.440;2023-06-14T00:40:38;7.95;;;6.60;;
19554;SDS011;9924;50.828;6.440;2023-06-14T00:43:22;8.75;;;6.57;;
19554;SDS011;9924;50.828;6.440;2023-06-14T00:46:07;10.50;;;7.00;;
19554;SDS011;9924;50.828;6.440;2023-06-14T00:48:51;12.35;;;7.50;;
19554;SDS011;9924;50.828;6.440;2023-06-14T00:51:36;10.73;;;7.28;;
19554;SDS011;9924;50.828;6.440;2023-06-14T00:54:21;11.00;;;7.47;;
19554;SDS011;9924;50.828;6.440;2023-06-14T00:57:06;7.30;;;6.50;;
19554;SDS011;9924;50.828;6.440;2023-06-14T00:59:51;8.90;;;6.88;;
19554;SDS011;9924;50.828;6.440;2023-06-14T01:02:36;8.68;;;6.90;;
19554;SDS011;9924;50.828;6.440;2023-06-14T01:05:21;13.23;;;6.75;;
19554;SDS011;9924;50.828;6.440;2023-06-14T01:08:18;8.68;;;6.60;;
19554;SDS011;9924;50.828;6.440;2023-06-14T01:11:27;9.20;;;6.65;;
19554;SDS011;9924;50.828;6.440;2023-06-14T01:14:15;7.70;;;6.80;;
19554;SDS011;9924;50.828;6.440;2023-06-14T01:17:01;8.90;;;7.20;;
19554;SDS011;9924;50.828;6.440;2023-06-14T01:19:46;8.50;;;7.05;;
19554;SDS011;9924;50.828;6.440;2023-06-14T01:22:30;8.70;;;7.40;;
19554;SDS011;9924;50.828;6.440;2023-06-14T01:25:15;8.90;;;7.25;;
19554;SDS011;9924;50.828;6.440;2023-06-14T01:28:03;9.63;;;7.03;;
19554;SDS011;9924;50.828;6.440;2023-06-14T01:30:55;11.68;;;7.20;;
19554;SDS011;9924;50.828;6.440;2023-06-14T01:33:39;9.05;;;8.13;;
19554;SDS011;9924;50.828;6.440;2023-06-14T01:36:23;8.63;;;7.55;;
19554;SDS011;9924;50.828;6.440;2023-06-14T01:39:11;10.27;;;7.72;;
19554;SDS011;9924;50.828;6.440;2023-06-14T01:41:58;9.98;;;8.23;;
19554;SDS011;9924;50.828;6.440;2023-06-14T01:44:44;9.77;;;7.90;;
19554;SDS011;9924;50.828;6.440;2023-06-14T01:47:30;11.75;;;8.60;;
19554;SDS011;9924;50.828;6.440;2023-06-14T01:50:14;11.18;;;7.78;;
19554;SDS011;9924;50.828;6.440;2023-06-14T01:52:59;9.70;;;7.25;;
19554;SDS011;9924;50.828;6.440;2023-06-14T01:55:44;12.45;;;8.68;;
19554;SDS011;9924;50.828;6.440;2023-06-14T01:58:31;9.80;;;7.40;;
19554;SDS011;9924;50.828;6.440;2023-06-14T02:01:16;8.98;;;7.65;;
19554;SDS011;9924;50.828;6.440;2023-06-14T02:04:02;9.38;;;8.07;;
19554;SDS011;9924;50.828;6.440;2023-06-14T02:06:47;8.50;;;7.00;;
19554;SDS011;9924;50.828;6.440;2023-06-14T02:09:31;11.50;;;7.53;;
19554;SDS011;9924;50.828;6.440;2023-06-14T02:12:16;10.68;;;8.20;;
19554;SDS011;9924;50.828;6.440;2023-06-14T02:15:00;10.80;;;7.70;;
19554;SDS011;9924;50.828;6.440;2023-06-14T02:17:44;9.95;;;8.48;;
19554;SDS011;9924;50.828;6.440;2023-06-14T02:20:30;12.27;;;7.68;;
19554;SDS011;9924;50.828;6.440;2023-06-14T02:23:14;8.80;;;7.30;;
19554;SDS011;9924;50.828;6.440;2023-06-14T02:25:59;9.00;;;7.93;;
19554;SDS011;9924;50.828;6.440;2023-06-14T02:28:43;8.32;;;7.32;;
19554;SDS011;9924;50.828;6.440;2023-06-14T02:31:27;8.48;;;7.55;;
19554;SDS011;9924;50.828;6.440;2023-06-14T02:34:12;9.95;;;7.60;;
19554;SDS011;9924;50.828;6.440;2023-06-14T02:36:56;9.80;;;7.88;;
19554;SDS011;9924;50.828;6.440;2023-06-14T02:39:41;9.68;;;7.50;;
19554;SDS011;9924;50.828;6.440;2023-06-14T02:42:25;9.00;;;7.78;;
19554;SDS011;9924;50.828;6.440;2023-06-14T02:45:10;8.45;;;7.00;;
19554;SDS011;9924;50.828;6.440;2023-06-14T02:47:54;11.55;;;8.43;;
19554;SDS011;9924;50.828;6.440;2023-06-14T02:50:39;12.32;;;8.10;;
19554;SDS011;9924;50.828;6.440;2023-06-14T02:53:24;10.45;;;7.97;;
19554;SDS011;9924;50.828;6.440;2023-06-14T02:56:08;10.48;;;7.57;;
19554;SDS011;9924;50.828;6.440;2023-06-14T02:58:52;11.05;;;8.45;;
19554;SDS011;9924;50.828;6.440;2023-06-14T03:01:37;10.20;;;8.60;;
19554;SDS011;9924;50.828;6.440;2023-06-14T03:04:24;10.00;;;8.80;;
19554;SDS011;9924;50.828;6.440;2023-06-14T03:07:09;8.90;;;7.60;;
19554;SDS011;9924;50.828;6.440;2023-06-14T03:09:54;10.32;;;8.95;;
19554;SDS011;9924;50.828;6.440;2023-06-14T03:12:39;10.27;;;8.73;;
19554;SDS011;9924;50.828;6.440;2023-06-14T03:15:23;10.60;;;8.43;;
19554;SDS011;9924;50.828;6.440;2023-06-14T03:18:08;14.35;;;8.75;;
19554;SDS011;9924;50.828;6.440;2023-06-14T03:20:52;11.95;;;8.30;;
19554;SDS011;9924;50.828;6.440;2023-06-14T03:23:37;10.70;;;8.48;;
19554;SDS011;9924;50.828;6.440;2023-06-14T03:26:22;11.90;;;9.38;;
19554;SDS011;9924;50.828;6.440;2023-06-14T03:29:07;12.77;;;8.35;;
19554;SDS011;9924;50.828;6.440;2023-06-14T03:31:58;13.02;;;8.00;;
19554;SDS011;9924;50.828;6.440;2023-06-14T03:34:44;12.43;;;9.43;;
19554;SDS011;9924;50.828;6.440;2023-06-14T03:37:29;11.77;;;8.60;;
19554;SDS011;9924;50.828;6.440;2023-06-14T03:40:14;11.63;;;8.88;;
19554;SDS011;9924;50.828;6.440;2023-06-14T03:43:00;9.80;;;8.60;;
19554;SDS011;9924;50.828;6.440;2023-06-14T03:45:44;12.10;;;8.63;;
19554;SDS011;9924;50.828;6.440;2023-06-14T03:48:28;10.43;;;9.32;;
19554;SDS011;9924;50.828;6.440;2023-06-14T03:51:13;12.32;;;9.10;;
19554;SDS011;9924;50.828;6.440;2023-06-14T03:53:58;14.30;;;9.40;;
19554;SDS011;9924;50.828;6.440;2023-06-14T03:56:42;12.38;;;9.35;;
19554;SDS011;9924;50.828;6.440;2023-06-14T03:59:26;12.52;;;9.10;;
19554;SDS011;9924;50.828;6.440;2023-06-14T04:02:11;13.63;;;9.60;;
19554;SDS011;9924;50.828;6.440;2023-06-14T04:04:58;11.68;;;8.95;;
19554;SDS011;9924;50.828;6.440;2023-06-14T04:07:43;12.48;;;9.32;;
19554;SDS011;9924;50.828;6.440;2023-06-14T04:10:28;11.85;;;9.20;;
19554;SDS011;9924;50.828;6.440;2023-06-14T04:13:13;11.23;;;8.60;;
19554;SDS011;9924;50.828;6.440;2023-06-14T04:15:57;10.35;;;8.45;;
19554;SDS011;9924;50.828;6.440;2023-06-14T04:18:41;16.40;;;9.52;;
19554;SDS011;9924;50.828;6.440;2023-06-14T04:21:26;12.30;;;8.73;;
19554;SDS011;9924;50.828;6.440;2023-06-14T04:24:12;15.38;;;9.30;;
19554;SDS011;9924;50.828;6.440;2023-06-14T04:27:00;10.15;;;8.35;;
19554;SDS011;9924;50.828;6.440;2023-06-14T04:29:47;11.27;;;8.63;;
19554;SDS011;9924;50.828;6.440;2023-06-14T04:32:33;10.98;;;8.68;;
19554;SDS011;9924;50.828;6.440;2023-06-14T04:35:22;9.93;;;8.38;;
19554;SDS011;9924;50.828;6.440;2023-06-14T04:38:09;10.05;;;8.57;;
19554;SDS011;9924;50.828;6.440;2023-06-14T04:40:53;13.93;;;10.10;;
19554;SDS011;9924;50.828;6.440;2023-06-14T04:43:38;10.88;;;8.85;;
19554;SDS011;9924;50.828;6.440;2023-06-14T04:46:23;14.63;;;8.65;;
19554;SDS011;9924;50.828;6.440;2023-06-14T04:49:07;12.57;;;9.38;;
19554;SDS011;9924;50.828;6.440;2023-06-14T04:51:51;11.63;;;8.80;;
19554;SDS011;9924;50.828;6.440;2023-06-14T04:54:42;11.10;;;8.88;;
19554;SDS011;9924;50.828;6.440;2023-06-14T04:57:27;11.00;;;9.15;;
19554;SDS011;9924;50.828;6.440;2023-06-14T05:00:11;14.48;;;10.45;;
19554;SDS011;9924;50.828;6.440;2023-06-14T05:02:57;15.35;;;9.30;;
19554;SDS011;9924;50.828;6.440;2023-06-14T05:05:41;10.15;;;8.77;;
19554;SDS011;9924;50.828;6.440;2023-06-14T05:08:25;11.63;;;8.77;;
19554;SDS011;9924;50.828;6.440;2023-06-14T05:11:10;10.20;;;8.02;;
19554;SDS011;9924;50.828;6.440;2023-06-14T05:13:54;14.98;;;9.50;;
19554;SDS011;9924;50.828;6.440;2023-06-14T05:16:39;13.18;;;8.95;;
19554;SDS011;9924;50.828;6.440;2023-06-14T05:19:23;12.27;;;9.05;;
19554;SDS011;9924;50.828;6.440;2023-06-14T05:22:08;9.48;;;8.02;;
19554;SDS011;9924;50.828;6.440;2023-06-14T05:24:53;14.10;;;10.15;;
19554;SDS011;9924;50.828;6.440;2023-06-14T05:27:38;15.70;;;9.27;;
19554;SDS011;9924;50.828;6.440;2023-06-14T05:30:25;14.95;;;8.25;;
19554;SDS011;9924;50.828;6.440;2023-06-14T05:33:09;8.23;;;6.22;;
19554;SDS011;9924;50.828;6.440;2023-06-14T05:35:54;7.10;;;5.78;;
19554;SDS011;9924;50.828;6.440;2023-06-14T05:38:39;9.77;;;6.30;;
19554;SDS011;9924;50.828;6.440;2023-06-14T05:41:26;7.82;;;5.80;;
19554;SDS011;9924;50.828;6.440;2023-06-14T05:44:11;8.30;;;5.20;;
19554;SDS011;9924;50.828;6.440;2023-06-14T05:46:55;6.95;;;5.00;;
19554;SDS011;9924;50.828;6.440;2023-06-14T05:49:40;14.23;;;5.32;;
19554;SDS011;9924;50.828;6.440;2023-06-14T05:52:24;9.73;;;6.03;;
19554;SDS011;9924;50.828;6.440;2023-06-14T05:55:09;14.98;;;6.00;;
19554;SDS011;9924;50.828;6.440;2023-06-14T05:57:55;7.63;;;4.95;;
19554;SDS011;9924;50.828;6.440;2023-06-14T06:00:40;8.10;;;5.75;;
19554;SDS011;9924;50.828;6.440;2023-06-14T06:03:24;10.50;;;5.05;;
19554;SDS011;9924;50.828;6.440;2023-06-14T06:06:13;7.47;;;5.22;;
19554;SDS011;9924;50.828;6.440;2023-06-14T06:08:57;9.40;;;4.93;;
19554;SDS011;9924;50.828;6.440;2023-06-14T06:11:42;9.63;;;5.32;;
19554;SDS011;9924;50.828;6.440;2023-06-14T06:14:26;13.18;;;4.88;;
19554;SDS011;9924;50.828;6.440;2023-06-14T06:17:11;10.38;;;4.93;;
19554;SDS011;9924;50.828;6.440;2023-06-14T06:19:55;7.60;;;4.68;;
19554;SDS011;9924;50.828;6.440;2023-06-14T06:22:39;9.45;;;4.50;;
19554;SDS011;9924;50.828;6.440;2023-06-14T06:25:24;10.43;;;4.70;;
19554;SDS011;9924;50.828;6.440;2023-06-14T06:28:09;12.48;;;4.55;;
19554;SDS011;9924;50.828;6.440;2023-06-14T06:30:54;8.27;;;4.28;;
19554;SDS011;9924;50.828;6.440;2023-06-14T06:33:39;7.43;;;4.60;;
19554;SDS011;9924;50.828;6.440;2023-06-14T06:36:24;8.38;;;4.63;;
19554;SDS011;9924;50.828;6.440;2023-06-14T06:39:08;5.05;;;3.60;;
19554;SDS011;9924;50.828;6.440;2023-06-14T06:41:53;5.80;;;4.25;;
19554;SDS011;9924;50.828;6.440;2023-06-14T06:44:38;7.57;;;3.92;;
19554;SDS011;9924;50.828;6.440;2023-06-14T06:47:22;9.60;;;3.92;;
19554;SDS011;9924;50.828;6.440;2023-06-14T06:50:07;8.13;;;3.90;;
19554;SDS011;9924;50.828;6.440;2023-06-14T06:52:51;8.68;;;3.80;;
19554;SDS011;9924;50.828;6.440;2023-06-14T06:55:37;7.80;;;3.83;;
19554;SDS011;9924;50.828;6.440;2023-06-14T06:58:21;7.03;;;4.03;;
19554;SDS011;9924;50.828;6.440;2023-06-14T07:01:06;7.20;;;4.20;;
19554;SDS011;9924;50.828;6.440;2023-06-14T07:03:52;7.38;;;3.85;;
19554;SDS011;9924;50.828;6.440;2023-06-14T07:06:37;9.20;;;3.60;;
19554;SDS011;9924;50.828;6.440;2023-06-14T07:09:21;6.57;;;3.47;;
19554;SDS011;9924;50.828;6.440;2023-06-14T07:12:06;7.53;;;3.45;;
19554;SDS011;9924;50.828;6.440;2023-06-14T07:14:51;15.02;;;3.67;;
19554;SDS011;9924;50.828;6.440;2023-06-14T07:17:36;11.45;;;3.30;;
19554;SDS011;9924;50.828;6.440;2023-06-14T07:20:20;7.65;;;3.28;;
19554;SDS011;9924;50.828;6.440;2023-06-14T07:23:06;4.82;;;3.22;;
19554;SDS011;9924;50.828;6.440;2023-06-14T07:25:51;7.05;;;3.58;;
19554;SDS011;9924;50.828;6.440;2023-06-14T07:28:35;5.03;;;2.90;;
19554;SDS011;9924;50.828;6.440;2023-06-14T07:31:19;6.55;;;3.00;;
19554;SDS011;9924;50.828;6.440;2023-06-14T07:34:04;4.63;;;3.25;;
19554;SDS011;9924;50.828;6.440;2023-06-14T07:36:48;6.45;;;3.00;;
19554;SDS011;9924;50.828;6.440;2023-06-14T07:39:33;3.90;;;3.00;;
19554;SDS011;9924;50.828;6.440;2023-06-14T07:42:17;5.22;;;2.70;;
19554;SDS011;9924;50.828;6.440;2023-06-14T07:45:02;4.95;;;3.10;;
19554;SDS011;9924;50.828;6.440;2023-06-14T07:47:47;5.88;;;3.05;;
19554;SDS011;9924;50.828;6.440;2023-06-14T07:50:31;4.43;;;2.80;;
19554;SDS011;9924;50.828;6.440;2023-06-14T07:53:16;5.75;;;3.05;;
19554;SDS011;9924;50.828;6.440;2023-06-14T07:56:00;8.73;;;3.20;;
19554;SDS011;9924;50.828;6.440;2023-06-14T07:58:46;5.70;;;3.08;;
19554;SDS011;9924;50.828;6.440;2023-06-14T08:01:30;7.70;;;3.08;;
19554;SDS011;9924;50.828;6.440;2023-06-14T08:04:15;4.80;;;2.80;;
19554;SDS011;9924;50.828;6.440;2023-06-14T08:07:00;8.65;;;3.33;;
19554;SDS011;9924;50.828;6.440;2023-06-14T08:09:44;8.07;;;3.15;;
19554;SDS011;9924;50.828;6.440;2023-06-14T08:12:29;3.13;;;2.53;;
19554;SDS011;9924;50.828;6.440;2023-06-14T08:15:13;3.58;;;2.33;;
19554;SDS011;9924;50.828;6.440;2023-06-14T08:17:58;5.30;;;2.80;;
19554;SDS011;9924;50.828;6.440;2023-06-14T08:20:44;7.10;;;2.95;;
19554;SDS011;9924;50.828;6.440;2023-06-14T08:23:29;6.28;;;3.00;;
19554;SDS011;9924;50.828;6.440;2023-06-14T08:26:14;9.50;;;2.78;;
19554;SDS011;9924;50.828;6.440;2023-06-14T08:28:59;9.88;;;3.05;;
19554;SDS011;9924;50.828;6.440;2023-06-14T08:31:43;4.95;;;3.08;;
19554;SDS011;9924;50.828;6.440;2023-06-14T08:34:28;7.07;;;3.00;;
19554;SDS011;9924;50.828;6.440;2023-06-14T08:37:12;4.55;;;2.72;;
19554;SDS011;9924;50.828;6.440;2023-06-14T08:39:57;5.07;;;2.70;;
19554;SDS011;9924;50.828;6.440;2023-06-14T08:42:41;6.68;;;3.15;;
19554;SDS011;9924;50.828;6.440;2023-06-14T08:45:26;5.38;;;2.78;;
19554;SDS011;9924;50.828;6.440;2023-06-14T08:48:11;6.65;;;2.65;;
19554;SDS011;9924;50.828;6.440;2023-06-14T08:50:59;5.80;;;2.65;;
19554;SDS011;9924;50.828;6.440;2023-06-14T08:53:48;4.15;;;2.38;;
19554;SDS011;9924;50.828;6.440;2023-06-14T08:56:38;6.40;;;2.58;;
19554;SDS011;9924;50.828;6.440;2023-06-14T08:59:28;8.50;;;3.03;;
19554;SDS011;9924;50.828;6.440;2023-06-14T09:02:12;6.53;;;2.45;;
19554;SDS011;9924;50.828;6.440;2023-06-14T09:04:58;4.82;;;2.88;;
19554;SDS011;9924;50.828;6.440;2023-06-14T09:07:43;7.90;;;2.60;;
19554;SDS011;9924;50.828;6.440;2023-06-14T09:10:28;4.10;;;2.30;;
19554;SDS011;9924;50.828;6.440;2023-06-14T09:13:12;4.32;;;2.70;;
19554;SDS011;9924;50.828;6.440;2023-06-14T09:15:56;4.35;;;2.78;;
19554;SDS011;9924;50.828;6.440;2023-06-14T09:18:42;5.57;;;2.78;;
19554;SDS011;9924;50.828;6.440;2023-06-14T09:21:28;4.72;;;2.60;;
19554;SDS011;9924;50.828;6.440;2023-06-14T09:24:18;4.82;;;2.58;;
19554;SDS011;9924;50.828;6.440;2023-06-14T09:27:03;6.70;;;2.80;;
19554;SDS011;9924;50.828;6.440;2023-06-14T09:29:48;6.63;;;2.40;;
19554;SDS011;9924;50.828;6.440;2023-06-14T09:32:32;5.38;;;2.30;;
19554;SDS011;9924;50.828;6.440;2023-06-14T09:35:21;7.85;;;2.30;;
19554;SDS011;9924;50.828;6.440;2023-06-14T09:38:05;5.65;;;2.30;;
19554;SDS011;9924;50.828;6.440;2023-06-14T09:40:50;3.67;;;2.03;;
19554;SDS011;9924;50.828;6.440;2023-06-14T09:43:34;11.30;;;2.45;;
19554;SDS011;9924;50.828;6.440;2023-06-14T09:46:21;12.07;;;3.05;;
19554;SDS011;9924;50.828;6.440;2023-06-14T09:49:05;8.68;;;3.15;;
19554;SDS011;9924;50.828;6.440;2023-06-14T09:51:51;6.07;;;2.78;;
19554;SDS011;9924;50.828;6.440;2023-06-14T09:54:40;4.45;;;2.17;;
19554;SDS011;9924;50.828;6.440;2023-06-14T09:57:26;5.28;;;1.90;;
19554;SDS011;9924;50.828;6.440;2023-06-14T10:00:13;4.72;;;1.90;;
19554;SDS011;9924;50.828;6.440;2023-06-14T10:03:00;6.93;;;4.40;;
19554;SDS011;9924;50.828;6.440;2023-06-14T10:05:50;5.95;;;2.05;;
19554;SDS011;9924;50.828;6.440;2023-06-14T10:08:35;3.15;;;1.83;;
19554;SDS011;9924;50.828;6.440;2023-06-14T10:11:21;5.28;;;1.98;;
19554;SDS011;9924;50.828;6.440;2023-06-14T10:14:06;4.68;;;1.48;;
19554;SDS011;9924;50.828;6.440;2023-06-14T10:17:02;5.95;;;2.00;;
19554;SDS011;9924;50.828;6.440;2023-06-14T10:19:55;4.38;;;1.77;;
19554;SDS011;9924;50.828;6.440;2023-06-14T10:22:51;3.10;;;1.65;;
19554;SDS011;9924;50.828;6.440;2023-06-14T10:25:58;4.28;;;1.63;;
19554;SDS011;9924;50.828;6.440;2023-06-14T10:28:44;1.77;;;1.52;;
19554;SDS011;9924;50.828;6.440;2023-06-14T10:31:43;2.63;;;1.75;;
19554;SDS011;9924;50.828;6.440;2023-06-14T10:34:29;2.53;;;1.60;;
19554;SDS011;9924;50.828;6.440;2023-06-14T10:37:14;3.65;;;1.70;;
19554;SDS011;9924;50.828;6.440;2023-06-14T10:39:59;2.63;;;1.73;;
19554;SDS011;9924;50.828;6.440;2023-06-14T10:42:51;3.03;;;1.83;;
19554;SDS011;9924;50.828;6.440;2023-06-14T10:45:35;6.60;;;1.80;;
19554;SDS011;9924;50.828;6.440;2023-06-14T10:48:29;4.28;;;1.65;;
19554;SDS011;9924;50.828;6.440;2023-06-14T10:51:19;3.38;;;1.85;;
19554;SDS011;9924;50.828;6.440;2023-06-14T10:54:05;4.05;;;1.80;;
19554;SDS011;9924;50.828;6.440;2023-06-14T10:56:58;2.10;;;1.85;;
19554;SDS011;9924;50.828;6.440;2023-06-14T10:59:42;2.80;;;1.88;;
19554;SDS011;9924;50.828;6.440;2023-06-14T11:02:46;2.95;;;2.20;;
19554;SDS011;9924;50.828;6.440;2023-06-14T11:06:10;3.05;;;1.88;;
19554;SDS011;9924;50.828;6.440;2023-06-14T11:09:10;2.65;;;1.60;;
19554;SDS011;9924;50.828;6.440;2023-06-14T11:12:16;2.28;;;1.60;;
19554;SDS011;9924;50.828;6.440;2023-06-14T11:15:01;5.07;;;1.75;;
19554;SDS011;9924;50.828;6.440;2023-06-14T11:17:49;3.10;;;1.90;;
19554;SDS011;9924;50.828;6.440;2023-06-14T11:20:37;5.85;;;1.88;;
19554;SDS011;9924;50.828;6.440;2023-06-14T11:23:21;6.07;;;2.20;;
19554;SDS011;9924;50.828;6.440;2023-06-14T11:26:07;5.68;;;1.60;;
19554;SDS011;9924;50.828;6.440;2023-06-14T11:28:54;4.97;;;1.83;;
19554;SDS011;9924;50.828;6.440;2023-06-14T11:31:42;4.32;;;2.20;;
19554;SDS011;9924;50.828;6.440;2023-06-14T11:34:28;5.00;;;1.80;;
19554;SDS011;9924;50.828;6.440;2023-06-14T11:37:13;2.80;;;1.85;;
19554;SDS011;9924;50.828;6.440;2023-06-14T11:39:57;6.20;;;2.33;;
19554;SDS011;9924;50.828;6.440;2023-06-14T11:42:42;4.10;;;1.98;;
19554;SDS011;9924;50.828;6.440;2023-06-14T11:45:27;5.40;;;2.03;;
19554;SDS011;9924;50.828;6.440;2023-06-14T11:48:12;6.80;;;1.70;;
19554;SDS011;9924;50.828;6.440;2023-06-14T11:50:58;4.32;;;1.80;;
19554;SDS011;9924;50.828;6.440;2023-06-14T11:53:43;6.15;;;2.00;;
19554;SDS011;9924;50.828;6.440;2023-06-14T11:56:27;3.10;;;1.70;;
19554;SDS011;9924;50.828;6.440;2023-06-14T11:59:13;3.70;;;1.65;;
19554;SDS011;9924;50.828;6.440;2023-06-14T12:01:57;5.43;;;1.85;;
19554;SDS011;9924;50.828;6.440;2023-06-14T12:04:42;7.50;;;2.08;;
19554;SDS011;9924;50.828;6.440;2023-06-14T12:07:27;5.38;;;1.90;;
19554;SDS011;9924;50.828;6.440;2023-06-14T12:10:15;3.83;;;1.83;;
19554;SDS011;9924;50.828;6.440;2023-06-14T12:12:59;5.05;;;1.90;;
19554;SDS011;9924;50.828;6.440;2023-06-14T12:15:43;3.10;;;2.00;;
19554;SDS011;9924;50.828;6.440;2023-06-14T12:18:31;4.75;;;1.80;;
19554;SDS011;9924;50.828;6.440;2023-06-14T12:21:22;3.63;;;1.60;;
19554;SDS011;9924;50.828;6.440;2023-06-14T12:24:07;5.70;;;1.67;;
19554;SDS011;9924;50.828;6.440;2023-06-14T12:26:52;8.32;;;2.00;;
19554;SDS011;9924;50.828;6.440;2023-06-14T12:29:37;6.82;;;2.00;;
19554;SDS011;9924;50.828;6.440;2023-06-14T12:32:22;6.10;;;1.77;;
19554;SDS011;9924;50.828;6.440;2023-06-14T12:35:06;3.17;;;1.77;;
19554;SDS011;9924;50.828;6.440;2023-06-14T12:37:51;3.10;;;1.90;;
19554;SDS011;9924;50.828;6.440;2023-06-14T12:40:35;4.25;;;2.03;;
19554;SDS011;9924;50.828;6.440;2023-06-14T12:43:21;2.90;;;1.73;;
19554;SDS011;9924;50.828;6.440;2023-06-14T12:46:06;5.63;;;1.80;;
19554;SDS011;9924;50.828;6.440;2023-06-14T12:48:50;3.45;;;2.03;;
19554;SDS011;9924;50.828;6.440;2023-06-14T12:51:35;3.95;;;2.10;;
19554;SDS011;9924;50.828;6.440;2023-06-14T12:54:19;4.95;;;2.25;;
19554;SDS011;9924;50.828;6.440;2023-06-14T12:57:06;3.75;;;2.15;;
19554;SDS011;9924;50.828;6.440;2023-06-14T12:59:51;3.55;;;2.15;;
19554;SDS011;9924;50.828;6.440;2023-06-14T13:02:35;4.88;;;2.20;;
19554;SDS011;9924;50.828;6.440;2023-06-14T13:05:19;3.67;;;1.80;;
19554;SDS011;9924;50.828;6.440;2023-06-14T13:08:04;4.05;;;1.63;;
19554;SDS011;9924;50.828;6.440;2023-06-14T13:10:49;5.05;;;2.10;;
19554;SDS011;9924;50.828;6.440;2023-06-14T13:13:33;5.45;;;1.98;;
19554;SDS011;9924;50.828;6.440;2023-06-14T13:16:17;2.17;;;1.90;;
19554;SDS011;9924;50.828;6.440;2023-06-14T13:19:02;2.42;;;1.50;;
19554;SDS011;9924;50.828;6.440;2023-06-14T13:21:47;2.97;;;1.95;;
19554;SDS011;9924;50.828;6.440;2023-06-14T13:24:32;2.60;;;1.88;;
19554;SDS011;9924;50.828;6.440;2023-06-14T13:27:16;3.40;;;2.10;;
19554;SDS011;9924;50.828;6.440;2023-06-14T13:30:01;4.68;;;1.90;;
19554;SDS011;9924;50.828;6.440;2023-06-14T13:32:47;6.93;;;2.03;;
19554;SDS011;9924;50.828;6.440;2023-06-14T13:35:31;6.75;;;2.10;;
19554;SDS011;9924;50.828;6.440;2023-06-14T13:38:16;4.80;;;1.90;;
19554;SDS011;9924;50.828;6.440;2023-06-14T13:41:00;2.33;;;1.85;;
19554;SDS011;9924;50.828;6.440;2023-06-14T13:43:45;5.47;;;1.95;;
19554;SDS011;9924;50.828;6.440;2023-06-14T13:46:29;5.63;;;1.80;;
19554;SDS011;9924;50.828;6.440;2023-06-14T13:49:14;1.88;;;1.58;;
19554;SDS011;9924;50.828;6.440;2023-06-14T13:51:59;3.47;;;1.98;;
19554;SDS011;9924;50.828;6.440;2023-06-14T13:54:43;4.40;;;2.13;;
19554;SDS011;9924;50.828;6.440;2023-06-14T13:57:28;3.75;;;2.00;;
19554;SDS011;9924;50.828;6.440;2023-06-14T14:00:13;2.35;;;1.88;;
19554;SDS011;9924;50.828;6.440;2023-06-14T14:02:57;1.98;;;1.75;;
19554;SDS011;9924;50.828;6.440;2023-06-14T14:05:43;4.82;;;2.00;;
19554;SDS011;9924;50.828;6.440;2023-06-14T14:08:28;4.32;;;1.88;;
19554;SDS011;9924;50.828;6.440;2023-06-14T14:11:12;3.85;;;2.20;;
19554;SDS011;9924;50.828;6.440;2023-06-14T14:13:57;4.28;;;2.15;;
19554;SDS011;9924;50.828;6.440;2023-06-14T14:16:41;4.15;;;1.83;;
19554;SDS011;9924;50.828;6.440;2023-06-14T14:19:25;2.33;;;1.60;;
19554;SDS011;9924;50.828;6.440;2023-06-14T14:22:10;2.35;;;1.70;;
19554;SDS011;9924;50.828;6.440;2023-06-14T14:24:54;4.85;;;1.90;;
19554;SDS011;9924;50.828;6.440;2023-06-14T14:27:39;4.40;;;1.77;;
19554;SDS011;9924;50.828;6.440;2023-06-14T14:30:23;4.50;;;1.90;;
19554;SDS011;9924;50.828;6.440;2023-06-14T14:33:08;3.20;;;1.65;;
19554;SDS011;9924;50.828;6.440;2023-06-14T14:35:55;2.50;;;1.70;;
19554;SDS011;9924;50.828;6.440;2023-06-14T14:38:39;4.63;;;1.55;;
19554;SDS011;9924;50.828;6.440;2023-06-14T14:41:23;5.47;;;1.58;;
19554;SDS011;9924;50.828;6.440;2023-06-14T14:44:08;3.42;;;1.70;;
19554;SDS011;9924;50.828;6.440;2023-06-14T14:46:52;3.08;;;1.67;;
19554;SDS011;9924;50.828;6.440;2023-06-14T14:49:36;3.15;;;1.70;;
19554;SDS011;9924;50.828;6.440;2023-06-14T14:52:21;1.95;;;1.45;;
19554;SDS011;9924;50.828;6.440;2023-06-14T14:55:05;2.28;;;1.42;;
19554;SDS011;9924;50.828;6.440;2023-06-14T14:57:50;3.15;;;1.42;;
19554;SDS011;9924;50.828;6.440;2023-06-14T15:00:34;4.00;;;1.40;;
19554;SDS011;9924;50.828;6.440;2023-06-14T15:03:19;3.25;;;1.23;;
19554;SDS011;9924;50.828;6.440;2023-06-14T15:06:03;2.88;;;1.50;;
19554;SDS011;9924;50.828;6.440;2023-06-14T15:08:48;3.63;;;1.42;;
19554;SDS011;9924;50.828;6.440;2023-06-14T15:11:34;1.65;;;1.48;;
19554;SDS011;9924;50.828;6.440;2023-06-14T15:14:18;1.83;;;1.20;;
19554;SDS011;9924;50.828;6.440;2023-06-14T15:17:03;3.17;;;1.40;;
19554;SDS011;9924;50.828;6.440;2023-06-14T15:19:47;2.65;;;1.35;;
19554;SDS011;9924;50.828;6.440;2023-06-14T15:22:32;1.45;;;1.30;;
19554;SDS011;9924;50.828;6.440;2023-06-14T15:25:16;3.33;;;1.20;;
19554;SDS011;9924;50.828;6.440;2023-06-14T15:28:01;1.50;;;1.40;;
19554;SDS011;9924;50.828;6.440;2023-06-14T15:30:46;4.30;;;1.50;;
19554;SDS011;9924;50.828;6.440;2023-06-14T15:33:30;4.05;;;1.75;;
19554;SDS011;9924;50.828;6.440;2023-06-14T15:36:15;1.73;;;1.40;;
19554;SDS011;9924;50.828;6.440;2023-06-14T15:38:59;3.13;;;1.70;;
19554;SDS011;9924;50.828;6.440;2023-06-14T15:41:43;2.17;;;1.55;;
19554;SDS011;9924;50.828;6.440;2023-06-14T15:44:28;1.60;;;1.40;;
19554;SDS011;9924;50.828;6.440;2023-06-14T15:47:12;2.80;;;1.55;;
19554;SDS011;9924;50.828;6.440;2023-06-14T15:49:57;4.75;;;1.80;;
19554;SDS011;9924;50.828;6.440;2023-06-14T15:52:41;2.50;;;1.67;;
19554;SDS011;9924;50.828;6.440;2023-06-14T15:55:25;2.42;;;1.60;;
19554;SDS011;9924;50.828;6.440;2023-06-14T15:58:10;3.45;;;1.60;;
19554;SDS011;9924;50.828;6.440;2023-06-14T16:00:54;2.50;;;1.73;;
19554;SDS011;9924;50.828;6.440;2023-06-14T16:03:38;4.60;;;1.90;;
19554;SDS011;9924;50.828;6.440;2023-06-14T16:06:23;5.13;;;1.88;;
19554;SDS011;9924;50.828;6.440;2023-06-14T16:09:07;2.42;;;1.80;;
19554;SDS011;9924;50.828;6.440;2023-06-14T16:11:51;2.38;;;1.80;;
19554;SDS011;9924;50.828;6.440;2023-06-14T16:14:37;3.53;;;1.90;;
19554;SDS011;9924;50.828;6.440;2023-06-14T16:17:22;3.20;;;1.65;;
19554;SDS011;9924;50.828;6.440;2023-06-14T16:20:07;4.97;;;1.90;;
19554;SDS011;9924;50.828;6.440;2023-06-14T16:22:51;2.72;;;1.70;;
19554;SDS011;9924;50.828;6.440;2023-06-14T16:25:36;2.83;;;1.70;;
19554;SDS011;9924;50.828;6.440;2023-06-14T16:28:21;4.95;;;1.92;;
19554;SDS011;9924;50.828;6.440;2023-06-14T16:31:05;2.80;;;1.65;;
19554;SDS011;9924;50.828;6.440;2023-06-14T16:33:49;6.20;;;2.15;;
19554;SDS011;9924;50.828;6.440;2023-06-14T16:36:40;3.30;;;1.60;;
19554;SDS011;9924;50.828;6.440;2023-06-14T16:39:24;2.55;;;1.80;;
19554;SDS011;9924;50.828;6.440;2023-06-14T16:42:08;5.45;;;2.22;;
19554;SDS011;9924;50.828;6.440;2023-06-14T16:44:54;4.00;;;1.92;;
19554;SDS011;9924;50.828;6.440;2023-06-14T16:47:38;5.47;;;1.92;;
19554;SDS011;9924;50.828;6.440;2023-06-14T16:50:22;3.30;;;1.60;;